CheckWX is a tool to help pilots better visualize weather data.  It is not intended as a substitute for an official pre-flight weather briefing.

20:58:18 UTC

KMDT METAR
Harrisburg International Airport
Harrisburg, Pennsylvania, USA
Current

1 hour ago

KMDT 171956Z 08005KT 10SM SCT250 27/08 A3009 RMK AO2 SLP187 T02720083
Observed
Sep-17 @ 19:56 UTC
Wind
  • 080° at 5 KTS
Visibility
10 SM
Flight Rules
VFR
Cloud Levels
  • Scattered at 25,000' AGL
Temperature
27°C / 81°F
Dewpoint
C / 46°F
Humidity
30%
Altimeter
30.09" Hg
Pressure
1018.92 hPa
Previous

2 hours ago

KMDT 171856Z 03004KT 10SM SCT250 26/09 A3011 RMK AO2 SLP194 T02610094
Observed
Sep-17 @ 18:56 UTC
Wind
  • 030° at 4 KTS
Visibility
10 SM
Flight Rules
VFR
Cloud Levels
  • Scattered at 25,000' AGL
Temperature
26°C / 79°F
Dewpoint
C / 48°F
Humidity
34%
Altimeter
30.11" Hg
Pressure
1019.62 hPa
Previous

3 hours ago

KMDT 171756Z 10007KT 10SM FEW250 26/10 A3013 RMK AO2 SLP200 T02610100 10261 20183 58013
Observed
Sep-17 @ 17:56 UTC
Wind
  • 100° at 7 KTS
Visibility
10 SM
Flight Rules
VFR
Cloud Levels
  • Few at 25,000' AGL
Temperature
26°C / 79°F
Dewpoint
10°C / 50°F
Humidity
37%
Altimeter
30.13" Hg
Pressure
1020.32 hPa